Time;durP1;ratioP1;P1;durP2;ratioP2;P2;SDS_P1;SDS_P2;PMS_P1;PMS_P2;Temp;Humidity;BMP_temperature;BMP_pressure;BME280_temperature;BME280_humidity;BME280_pressure;Samples;Min_cycle;Max_cycle;Signal;HPM_P1;HPM_P2
2023/10/03 00:00:13;;;;;;;6.20;3.20;;;;;;;15.83;81.20;99537.19;341889;28;4628;-66
2023/10/03 00:00:27;;;;;;;8.13;3.38;;;;;;;15.83;81.57;99537.19;336456;28;17564;-65
2023/10/03 00:00:41;;;;;;;10.38;3.53;;;;;;;15.82;81.75;99535.50;338772;28;15063;-65
2023/10/03 00:00:54;;;;;;;9.95;3.80;;;;;;;15.81;81.55;99535.56;339515;28;5160;-65
2023/10/03 00:01:06;;;;;;;9.27;4.10;;;;;;;15.80;81.76;99532.13;341825;28;4737;-64
2023/10/03 00:01:18;;;;;;;9.60;4.15;;;;;;;15.81;81.65;99539.03;341685;28;5217;-66
2023/10/03 00:01:31;;;;;;;9.10;3.95;;;;;;;15.82;81.58;99535.50;338563;28;17370;-65
2023/10/03 00:01:43;;;;;;;8.95;3.95;;;;;;;15.81;81.76;99536.41;341722;28;4629;-65
2023/10/03 00:01:55;;;;;;;10.38;4.28;;;;;;;15.81;82.02;99532.97;337564;28;18215;-64
2023/10/03 00:02:07;;;;;;;10.38;4.20;;;;;;;15.81;81.73;99533.78;340119;28;4706;-65
2023/10/03 00:02:20;;;;;;;8.93;3.72;;;;;;;15.82;81.39;99532.88;338121;28;7450;-65
2023/10/03 00:02:32;;;;;;;8.93;3.55;;;;;;;15.84;81.51;99531.03;341326;28;4632;-64
2023/10/03 00:02:45;;;;;;;8.52;3.45;;;;;;;15.84;81.57;99532.81;334361;28;13479;-65
2023/10/03 00:02:58;;;;;;;7.80;3.47;;;;;;;15.83;81.82;99534.56;341939;28;4646;-65
2023/10/03 00:03:13;;;;;;;6.85;3.55;;;;;;;15.83;82.10;99536.34;339427;28;18194;-65
2023/10/03 00:03:26;;;;;;;7.45;3.58;;;;;;;15.81;82.15;99533.78;338688;28;18052;-65
2023/10/03 00:03:39;;;;;;;7.22;3.50;;;;;;;15.81;81.91;99536.41;339627;28;11598;-65
2023/10/03 00:03:53;;;;;;;6.95;3.50;;;;;;;15.81;82.13;99538.19;342271;28;4624;-66
2023/10/03 00:04:07;;;;;;;7.18;3.22;;;;;;;15.81;81.62;99531.19;339436;28;11611;-65
2023/10/03 00:04:19;;;;;;;7.55;3.30;;;;;;;15.81;81.54;99525.94;342743;28;5968;-64
2023/10/03 00:04:32;;;;;;;7.25;3.55;;;;;;;15.81;81.46;99539.03;338068;28;18277;-64
2023/10/03 00:04:44;;;;;;;9.50;3.95;;;;;;;15.82;81.26;99538.13;342929;28;4667;-64
2023/10/03 00:04:56;;;;;;;8.80;3.63;;;;;;;15.85;81.32;99529.22;338590;28;19126;-65
2023/10/03 00:05:11;;;;;;;7.63;3.37;;;;;;;15.84;81.26;99527.56;341472;28;5153;-65
2023/10/03 00:05:28;;;;;;;6.78;3.58;;;;;;;15.83;81.18;99533.72;338674;28;18022;-64
2023/10/03 00:05:42;;;;;;;7.70;4.07;;;;;;;15.85;81.17;99530.06;339302;28;19083;-65
2023/10/03 00:05:55;;;;;;;8.23;3.88;;;;;;;15.83;81.30;99531.09;337321;28;18246;-65
2023/10/03 00:06:07;;;;;;;9.18;3.70;;;;;;;15.83;81.38;99533.72;338027;28;18475;-65
2023/10/03 00:06:19;;;;;;;8.50;3.75;;;;;;;15.82;81.47;99535.50;341606;28;4888;-64
2023/10/03 00:06:33;;;;;;;8.03;3.80;;;;;;;15.82;81.56;99525.00;337218;28;16391;-65
2023/10/03 00:06:46;;;;;;;7.70;3.95;;;;;;;15.82;82.03;99529.41;340013;28;4682;-65
2023/10/03 00:06:58;;;;;;;7.25;3.80;;;;;;;15.80;81.82;99526.88;337836;28;18061;-65
2023/10/03 00:07:10;;;;;;;8.18;3.80;;;;;;;15.82;81.70;99521.56;340234;28;5580;-65
2023/10/03 00:07:22;;;;;;;9.15;3.90;;;;;;;15.81;81.68;99525.94;338844;28;18585;-65
2023/10/03 00:07:35;;;;;;;8.63;3.83;;;;;;;15.79;81.56;99525.19;336800;28;4679;-65
2023/10/03 00:07:47;;;;;;;7.75;3.60;;;;;;;15.83;81.82;99525.84;337784;28;12036;-65
2023/10/03 00:08:04;;;;;;;6.03;3.38;;;;;;;15.80;81.96;99526.88;341333;28;5135;-65
2023/10/03 00:08:16;;;;;;;7.28;3.58;;;;;;;15.81;81.65;99523.31;338749;28;17850;-65
2023/10/03 00:08:28;;;;;;;8.35;3.85;;;;;;;15.82;81.51;99525.00;338733;28;18288;-65
2023/10/03 00:08:44;;;;;;;8.32;3.40;;;;;;;15.83;81.24;99529.31;342182;28;4641;-65
2023/10/03 00:08:56;;;;;;;9.43;3.10;;;;;;;15.85;81.30;99529.22;335093;28;17793;-65
2023/10/03 00:09:11;;;;;;;9.15;3.10;;;;;;;15.83;81.14;99523.22;338014;28;18137;-65
2023/10/03 00:09:23;;;;;;;8.27;2.92;;;;;;;15.83;80.98;99526.69;339786;28;17961;-65
2023/10/03 00:09:35;;;;;;;7.10;3.17;;;;;;;15.83;81.25;99526.69;340258;28;5425;-65
2023/10/03 00:09:47;;;;;;;8.27;3.40;;;;;;;15.84;80.99;99527.56;337372;28;17792;-65
2023/10/03 00:09:59;;;;;;;8.70;3.45;;;;;;;15.82;81.36;99525.00;341636;28;4652;-66
2023/10/03 00:10:11;;;;;;;8.23;3.20;;;;;;;15.82;81.27;99526.81;341807;28;5446;-66
2023/10/03 00:10:24;;;;;;;8.93;3.45;;;;;;;15.81;81.25;99523.31;340310;28;19059;-65
2023/10/03 00:10:38;;;;;;;8.02;3.33;;;;;;;15.82;81.39;99530.25;338628;28;18709;-64
2023/10/03 00:10:50;;;;;;;6.60;3.20;;;;;;;15.80;81.35;99521.63;339406;28;19012;-65
2023/10/03 00:11:02;;;;;;;5.85;2.90;;;;;;;15.78;81.07;99524.34;342991;28;4635;-66
2023/10/03 00:11:18;;;;;;;6.15;2.78;;;;;;;15.78;81.05;99526.13;340063;28;18459;-65
2023/10/03 00:11:33;;;;;;;6.18;2.97;;;;;;;15.80;81.03;99526.88;338885;28;17795;-65
2023/10/03 00:11:45;;;;;;;5.90;2.70;;;;;;;15.80;81.04;99526.88;338870;28;18352;-65
2023/10/03 00:11:57;;;;;;;6.30;2.88;;;;;;;15.81;81.02;99522.47;341590;28;4660;-65
2023/10/03 00:12:09;;;;;;;7.20;3.08;;;;;;;15.81;81.08;99525.94;337055;28;16294;-65
2023/10/03 00:12:22;;;;;;;7.63;3.38;;;;;;;15.82;80.83;99526.81;341476;28;5162;-64
2023/10/03 00:12:34;;;;;;;7.72;3.60;;;;;;;15.83;80.77;99525.84;337930;28;17198;-65
2023/10/03 00:12:48;;;;;;;9.55;4.05;;;;;;;15.82;80.61;99529.41;340100;28;4978;-65
2023/10/03 00:13:00;;;;;;;9.35;4.20;;;;;;;15.82;80.58;99526.81;338260;28;18028;-64
2023/10/03 00:13:12;;;;;;;9.63;3.92;;;;;;;15.81;80.71;99523.31;342623;28;4748;-65
2023/10/03 00:13:25;;;;;;;10.85;3.67;;;;;;;15.79;80.79;99525.19;334325;28;18231;-65
2023/10/03 00:13:37;;;;;;;10.30;3.03;;;;;;;15.78;80.66;99524.34;342044;28;5517;-65
2023/10/03 00:13:50;;;;;;;7.10;2.88;;;;;;;15.77;80.78;99527.03;340515;28;19066;-65
2023/10/03 00:14:07;;;;;;;6.85;3.40;;;;;;;15.76;81.09;99526.19;342830;28;4631;-65
2023/10/03 00:14:19;;;;;;;10.23;3.90;;;;;;;15.75;80.97;99523.66;340488;28;18073;-64
2023/10/03 00:14:31;;;;;;;10.63;3.90;;;;;;;15.74;80.95;99530.69;341092;28;4649;-65
2023/10/03 00:14:43;;;;;;;11.68;3.97;;;;;;;15.75;81.17;99528.91;341412;28;4676;-66
2023/10/03 00:14:55;;;;;;;11.25;4.00;;;;;;;15.74;81.56;99527.22;338407;28;12001;-64
2023/10/03 00:15:08;;;;;;;9.60;3.83;;;;;;;15.73;81.68;99520.28;339884;28;17467;-65
2023/10/03 00:15:25;;;;;;;8.70;3.58;;;;;;;15.74;81.61;99528.06;338888;28;18210;-65
2023/10/03 00:15:43;;;;;;;7.93;3.38;;;;;;;15.74;81.77;99525.44;337793;28;17886;-65
2023/10/03 00:15:56;;;;;;;6.18;3.30;;;;;;;15.75;81.43;99523.66;337618;28;17936;-65
2023/10/03 00:16:08;;;;;;;6.35;3.10;;;;;;;15.76;81.25;99530.59;340094;28;5144;-65
2023/10/03 00:16:21;;;;;;;6.65;3.00;;;;;;;15.76;81.26;99530.59;332824;28;18099;-65
2023/10/03 00:16:34;;;;;;;7.03;3.00;;;;;;;15.76;81.07;99525.38;341513;28;4637;-65
2023/10/03 00:16:46;;;;;;;7.18;3.22;;;;;;;15.73;81.38;99526.34;339075;28;18429;-65
2023/10/03 00:16:59;;;;;;;7.70;3.22;;;;;;;15.73;81.59;99528.13;341747;28;4677;-66
2023/10/03 00:17:11;;;;;;;7.50;3.20;;;;;;;15.74;81.26;99527.22;334777;28;4597;-65
2023/10/03 00:17:25;;;;;;;7.82;3.30;;;;;;;15.73;81.35;99525.53;341136;28;12925;-65
2023/10/03 00:17:37;;;;;;;6.43;3.05;;;;;;;15.72;81.36;99524.69;337981;28;17235;-65
2023/10/03 00:17:49;;;;;;;6.47;3.17;;;;;;;15.73;81.45;99520.28;340716;28;4639;-65
2023/10/03 00:18:03;;;;;;;6.20;2.97;;;;;;;15.75;81.27;99528.91;337824;28;17948;-65
2023/10/03 00:18:15;;;;;;;6.10;2.72;;;;;;;15.73;81.44;99518.50;341580;28;4780;-65
2023/10/03 00:18:29;;;;;;;5.97;2.90;;;;;;;15.75;81.53;99523.66;338578;28;19168;-65
2023/10/03 00:18:42;;;;;;;6.20;2.78;;;;;;;15.72;81.89;99529.06;338889;28;5499;-65
2023/10/03 00:18:54;;;;;;;6.82;2.88;;;;;;;15.69;82.11;99518.72;341208;28;4664;-65
2023/10/03 00:19:06;;;;;;;6.93;3.10;;;;;;;15.70;81.85;99525.69;338928;28;11763;-65
2023/10/03 00:19:19;;;;;;;7.32;2.92;;;;;;;15.70;81.44;99523.88;336675;28;4777;-65
2023/10/03 00:19:31;;;;;;;8.40;2.65;;;;;;;15.70;81.39;99525.69;338214;28;17138;-64
2023/10/03 00:19:43;;;;;;;6.95;2.75;;;;;;;15.70;81.26;99525.69;340717;28;4890;-65
2023/10/03 00:19:55;;;;;;;7.13;2.78;;;;;;;15.71;81.28;99527.34;339233;28;5375;-65
2023/10/03 00:20:11;;;;;;;6.03;2.80;;;;;;;15.71;81.08;99528.19;338004;28;18442;-65
2023/10/03 00:20:23;;;;;;;5.60;3.10;;;;;;;15.72;81.19;99526.44;338452;28;17864;-65
2023/10/03 00:20:36;;;;;;;5.97;2.90;;;;;;;15.71;81.16;99527.34;342332;28;4719;-65
2023/10/03 00:20:48;;;;;;;6.43;2.58;;;;;;;15.71;81.16;99527.34;335603;28;17855;-64
2023/10/03 00:21:01;;;;;;;7.25;3.00;;;;;;;15.67;81.37;99525.84;343962;28;4730;-64
2023/10/03 00:21:13;;;;;;;7.38;3.05;;;;;;;15.67;81.54;99525.84;336293;28;4843;-65
2023/10/03 00:21:25;;;;;;;7.20;3.22;;;;;;;15.65;81.56;99522.44;341378;28;5332;-65
2023/10/03 00:21:37;;;;;;;6.32;3.22;;;;;;;15.65;81.73;99519.84;340765;28;10437;-66
2023/10/03 00:21:49;;;;;;;7.03;3.30;;;;;;;15.65;81.58;99517.22;342526;28;4637;-64
2023/10/03 00:22:01;;;;;;;7.82;3.10;;;;;;;15.64;81.84;99524.22;342218;28;4715;-65
2023/10/03 00:22:13;;;;;;;8.90;3.40;;;;;;;15.62;82.26;99528.72;334526;28;11652;-65
2023/10/03 00:22:25;;;;;;;6.95;3.20;;;;;;;15.63;82.00;99527.78;340796;28;5471;-66
2023/10/03 00:22:38;;;;;;;5.50;3.15;;;;;;;15.64;81.81;99523.41;340070;28;11796;-65
2023/10/03 00:22:51;;;;;;;4.80;2.70;;;;;;;15.64;81.72;99531.25;341433;28;5262;-65
2023/10/03 00:23:06;;;;;;;6.03;2.55;;;;;;;15.65;81.26;99530.31;338560;28;18046;-65
2023/10/03 00:23:18;;;;;;;8.50;2.80;;;;;;;15.65;81.43;99525.91;338689;28;18176;-65
2023/10/03 00:23:32;;;;;;;10.02;3.03;;;;;;;15.64;81.32;99523.41;342036;28;5373;-65
2023/10/03 00:23:44;;;;;;;8.23;3.08;;;;;;;15.64;81.04;99524.22;335497;28;18023;-64
2023/10/03 00:23:56;;;;;;;7.30;3.08;;;;;;;15.63;81.08;99525.16;342554;28;5826;-65
2023/10/03 00:24:08;;;;;;;8.82;2.95;;;;;;;15.62;81.62;99520.03;340497;28;16210;-64
2023/10/03 00:24:20;;;;;;;9.15;3.38;;;;;;;15.58;81.95;99522.78;342756;28;4556;-65
2023/10/03 00:24:32;;;;;;;9.32;3.58;;;;;;;15.58;81.76;99520.19;340960;28;4993;-64
2023/10/03 00:24:45;;;;;;;8.70;3.45;;;;;;;15.58;81.89;99521.97;337401;28;17168;-65
2023/10/03 00:24:57;;;;;;;8.65;3.15;;;;;;;15.58;82.14;99514.09;340196;28;5550;-65
2023/10/03 00:25:18;;;;;;;9.20;3.00;;;;;;;15.58;82.09;99517.56;337940;28;20149;-65
2023/10/03 00:25:30;;;;;;;7.53;3.17;;;;;;;15.57;82.05;99526.38;338268;28;17558;-64
2023/10/03 00:25:42;;;;;;;6.43;3.10;;;;;;;15.57;82.46;99522.88;341701;28;4653;-64
2023/10/03 00:25:56;;;;;;;7.30;3.00;;;;;;;15.58;82.17;99522.78;339279;28;4654;-65
2023/10/03 00:26:15;;;;;;;7.90;2.88;;;;;;;15.61;82.02;99520.94;341500;28;4810;-65
2023/10/03 00:26:28;;;;;;;9.20;3.33;;;;;;;15.61;81.37;99526.19;338283;28;17901;-65
2023/10/03 00:26:44;;;;;;;9.02;3.53;;;;;;;15.58;81.31;99517.56;335310;28;17939;-65
2023/10/03 00:26:56;;;;;;;7.60;3.50;;;;;;;15.61;81.18;99531.41;338530;28;17755;-65
2023/10/03 00:27:09;;;;;;;6.97;3.05;;;;;;;15.60;81.22;99517.47;340719;28;5563;-65
2023/10/03 00:27:21;;;;;;;7.90;2.90;;;;;;;15.60;81.12;99521.88;334927;28;18327;-66
2023/10/03 00:27:35;;;;;;;8.80;3.38;;;;;;;15.57;81.55;99515.88;341331;28;4725;-65
2023/10/03 00:27:51;;;;;;;9.02;3.42;;;;;;;15.58;81.60;99514.94;339090;28;17708;-65
2023/10/03 00:28:05;;;;;;;9.15;3.05;;;;;;;15.58;81.97;99517.56;338644;28;17809;-64
2023/10/03 00:28:18;;;;;;;9.68;3.40;;;;;;;15.58;81.71;99514.94;337941;28;18348;-65
2023/10/03 00:28:30;;;;;;;8.30;3.33;;;;;;;15.58;81.83;99522.78;340245;28;11860;-65
2023/10/03 00:28:42;;;;;;;6.50;3.10;;;;;;;15.58;81.62;99514.09;339666;28;17640;-65
2023/10/03 00:28:56;;;;;;;5.32;3.10;;;;;;;15.60;81.84;99516.63;341753;28;5682;-66
2023/10/03 00:29:13;;;;;;;6.82;3.25;;;;;;;15.61;81.51;99518.31;336039;28;16095;-66
2023/10/03 00:29:29;;;;;;;8.57;3.35;;;;;;;15.62;81.58;99518.22;338002;28;18242;-65
2023/10/03 00:29:41;;;;;;;7.68;3.20;;;;;;;15.64;81.17;99512.91;338875;28;17688;-65
2023/10/03 00:29:55;;;;;;;7.07;3.20;;;;;;;15.64;81.05;99515.53;335543;28;4710;-65
2023/10/03 00:30:10;;;;;;;8.68;3.38;;;;;;;15.64;81.17;99515.53;338239;28;5759;-65
2023/10/03 00:30:26;;;;;;;8.13;3.40;;;;;;;15.62;81.00;99517.41;338175;28;17871;-64
2023/10/03 00:30:45;;;;;;;6.90;3.35;;;;;;;15.57;81.26;99522.88;337894;28;17842;-65
2023/10/03 00:30:58;;;;;;;6.18;3.00;;;;;;;15.54;81.72;99515.19;337853;28;17776;-65
2023/10/03 00:31:11;;;;;;;7.43;3.15;;;;;;;15.50;82.32;99513.69;340450;28;4712;-66
2023/10/03 00:31:24;;;;;;;7.18;3.25;;;;;;;15.48;82.21;99515.53;337862;28;18206;-64
2023/10/03 00:31:38;;;;;;;6.47;3.28;;;;;;;15.47;82.38;99514.66;338955;28;11248;-66
2023/10/03 00:31:50;;;;;;;6.38;3.20;;;;;;;15.47;82.60;99509.44;341666;28;4544;-64
2023/10/03 00:32:02;;;;;;;7.07;3.15;;;;;;;15.47;82.53;99514.66;338325;28;18160;-65
2023/10/03 00:32:15;;;;;;;7.07;3.20;;;;;;;15.48;82.14;99516.38;341552;28;4582;-64
2023/10/03 00:32:27;;;;;;;7.43;3.15;;;;;;;15.51;82.04;99515.34;337921;28;18850;-65
2023/10/03 00:32:41;;;;;;;7.60;3.15;;;;;;;15.52;81.84;99520.50;340097;28;5510;-64
2023/10/03 00:32:54;;;;;;;8.82;3.65;;;;;;;15.52;81.78;99523.13;333482;28;18283;-65
2023/10/03 00:33:10;;;;;;;8.93;3.38;;;;;;;15.53;81.68;99509.13;340113;28;11821;-64
2023/10/03 00:33:25;;;;;;;8.52;2.83;;;;;;;15.53;81.67;99518.72;339121;28;17969;-64
2023/10/03 00:33:37;;;;;;;8.60;3.38;;;;;;;15.49;81.96;99523.31;338749;28;16052;-65
2023/10/03 00:33:49;;;;;;;7.78;3.33;;;;;;;15.48;82.09;99520.78;341223;28;5397;-65
2023/10/03 00:34:01;;;;;;;8.27;3.30;;;;;;;15.47;82.28;99521.69;341599;28;4651;-65
2023/10/03 00:34:13;;;;;;;8.80;3.25;;;;;;;15.44;82.17;99514.84;334356;28;18078;-64
2023/10/03 00:34:26;;;;;;;8.73;3.38;;;;;;;15.44;82.16;99517.47;341622;28;4579;-65
2023/10/03 00:34:40;;;;;;;8.25;3.25;;;;;;;15.45;82.29;99516.53;338416;28;18057;-65
2023/10/03 00:34:52;;;;;;;8.93;3.20;;;;;;;15.43;82.50;99513.16;337951;28;18309;-64
2023/10/03 00:35:05;;;;;;;8.82;3.13;;;;;;;15.44;82.49;99514.03;341637;28;5472;-64
2023/10/03 00:35:19;;;;;;;9.73;2.92;;;;;;;15.44;82.59;99517.47;339274;28;13032;-64
2023/10/03 00:35:31;;;;;;;7.45;2.88;;;;;;;15.45;82.78;99515.69;340287;28;4657;-65
2023/10/03 00:35:43;;;;;;;7.05;3.13;;;;;;;15.45;82.82;99510.47;334595;28;18234;-65
2023/10/03 00:35:56;;;;;;;7.95;3.67;;;;;;;15.45;82.81;99519.16;338211;28;18260;-65
2023/10/03 00:36:16;;;;;;;8.35;4.00;;;;;;;15.47;82.72;99514.66;334844;28;4751;-65
2023/10/03 00:36:31;;;;;;;7.15;3.53;;;;;;;15.46;82.55;99513.00;338315;28;17707;-65
2023/10/03 00:36:43;;;;;;;6.90;3.25;;;;;;;15.48;82.06;99519.00;339296;28;18180;-65
2023/10/03 00:36:55;;;;;;;7.45;3.20;;;;;;;15.47;82.16;99512.06;341324;28;4697;-65
2023/10/03 00:37:07;;;;;;;10.00;3.17;;;;;;;15.48;82.09;99516.38;341429;28;4693;-64
2023/10/03 00:37:19;;;;;;;9.75;3.40;;;;;;;15.49;82.02;99518.09;339187;28;18304;-64
2023/10/03 00:37:31;;;;;;;11.32;3.50;;;;;;;15.47;81.59;99509.44;341195;28;4751;-65
2023/10/03 00:37:45;;;;;;;8.77;3.05;;;;;;;15.47;81.86;99519.91;341094;28;18452;-65
2023/10/03 00:37:57;;;;;;;6.80;2.80;;;;;;;15.46;81.92;99515.63;339144;28;18022;-65
2023/10/03 00:38:13;;;;;;;7.13;3.05;;;;;;;15.42;82.07;99516.72;339028;28;13078;-65
2023/10/03 00:38:26;;;;;;;8.77;3.42;;;;;;;15.35;82.57;99516.22;338721;28;17666;-65
2023/10/03 00:38:38;;;;;;;9.18;3.53;;;;;;;15.34;82.71;99521.53;341535;28;4790;-65
2023/10/03 00:38:50;;;;;;;7.68;3.28;;;;;;;15.34;82.70;99524.16;338180;28;17281;-66
2023/10/03 00:39:06;;;;;;;7.50;3.10;;;;;;;15.32;82.42;99516.38;335998;28;5652;-65
2023/10/03 00:39:18;;;;;;;6.78;2.67;;;;;;;15.34;82.37;99519.75;339182;28;18024;-65
2023/10/03 00:39:30;;;;;;;7.28;2.58;;;;;;;15.34;82.31;99521.53;338480;28;4684;-65
2023/10/03 00:39:43;;;;;;;8.70;2.88;;;;;;;15.35;82.19;99520.59;340511;28;4652;-65
2023/10/03 00:39:57;;;;;;;7.85;3.10;;;;;;;15.36;82.41;99522.28;338125;28;5225;-65
2023/10/03 00:40:35;;;;;;;8.73;3.40;;;;;;;15.36;82.46;99520.50;338682;28;17444;-64
2023/10/03 00:40:49;;;;;;;8.73;3.25;;;;;;;15.32;82.76;99516.38;338889;28;18410;-65
2023/10/03 00:41:01;;;;;;;7.72;3.05;;;;;;;15.34;82.77;99521.53;338887;28;18180;-64
2023/10/03 00:41:14;;;;;;;7.53;3.13;;;;;;;15.33;82.82;99523.31;341594;28;4636;-65
2023/10/03 00:41:26;;;;;;;7.30;3.30;;;;;;;15.33;82.64;99517.19;337720;28;18256;-65
2023/10/03 00:41:40;;;;;;;6.70;3.20;;;;;;;15.33;82.60;99517.19;341241;28;4506;-65
2023/10/03 00:41:52;;;;;;;6.00;2.90;;;;;;;15.31;82.89;99519.06;333953;28;5835;-65
2023/10/03 00:42:08;;;;;;;6.18;3.00;;;;;;;15.31;82.77;99519.06;341309;28;4639;-66
2023/10/03 00:42:20;;;;;;;6.80;3.13;;;;;;;15.31;82.93;99519.06;338984;28;17820;-65
2023/10/03 00:42:32;;;;;;;7.23;3.27;;;;;;;15.31;82.78;99513.81;338550;28;18064;-65
2023/10/03 00:42:46;;;;;;;6.40;3.25;;;;;;;15.30;82.63;99523.47;341534;28;4788;-64
2023/10/03 00:43:00;;;;;;;7.05;3.35;;;;;;;15.30;82.93;99514.78;338895;28;19272;-64
2023/10/03 00:43:12;;;;;;;7.18;3.65;;;;;;;15.29;83.06;99516.56;338697;28;18107;-64
2023/10/03 00:43:24;;;;;;;7.32;3.90;;;;;;;15.29;83.02;99520.91;340298;28;5224;-64
2023/10/03 00:43:37;;;;;;;9.27;4.18;;;;;;;15.28;83.20;99514.00;332897;28;18057;-64
2023/10/03 00:44:01;;;;;;;9.27;3.80;;;;;;;15.27;83.60;99507.06;340875;28;4543;-65
2023/10/03 00:44:14;;;;;;;9.10;3.22;;;;;;;15.26;83.55;99505.38;339038;28;17629;-64
2023/10/03 00:44:26;;;;;;;12.55;3.42;;;;;;;15.28;83.45;99514.00;339079;28;4656;-65
2023/10/03 00:44:38;;;;;;;13.55;3.25;;;;;;;15.28;83.36;99514.00;341817;28;5151;-65
2023/10/03 00:44:50;;;;;;;8.65;2.92;;;;;;;15.27;83.31;99507.06;336864;28;4648;-65
2023/10/03 00:45:02;;;;;;;7.32;3.15;;;;;;;15.25;83.24;99512.41;338758;28;17546;-65
2023/10/03 00:45:19;;;;;;;7.90;3.50;;;;;;;15.27;83.44;99507.06;341675;28;4683;-64
2023/10/03 00:45:34;;;;;;;8.68;2.92;;;;;;;15.28;83.48;99508.78;338441;28;17493;-65
2023/10/03 00:45:48;;;;;;;7.85;2.70;;;;;;;15.24;83.57;99510.69;339050;28;18766;-64
2023/10/03 00:46:00;;;;;;;7.88;3.30;;;;;;;15.25;83.56;99515.03;339252;28;18225;-64
2023/10/03 00:46:12;;;;;;;8.30;3.65;;;;;;;15.26;83.29;99510.63;334484;28;12235;-65
2023/10/03 00:46:26;;;;;;;8.40;3.40;;;;;;;15.26;83.27;99511.47;341490;28;4797;-64
2023/10/03 00:46:38;;;;;;;9.88;2.95;;;;;;;15.26;83.42;99513.25;337831;28;17963;-65
2023/10/03 00:46:51;;;;;;;9.70;3.17;;;;;;;15.27;83.24;99507.94;340618;28;4637;-64
2023/10/03 00:47:06;;;;;;;9.15;3.20;;;;;;;15.29;83.18;99510.44;338575;28;11421;-64
2023/10/03 00:47:19;;;;;;;7.00;3.03;;;;;;;15.29;83.14;99511.31;338178;28;17081;-65
2023/10/03 00:47:31;;;;;;;7.05;3.20;;;;;;;15.31;83.02;99513.81;340991;28;5018;-64
2023/10/03 00:47:43;;;;;;;9.55;3.45;;;;;;;15.32;83.01;99510.28;337502;28;16070;-64
2023/10/03 00:48:00;;;;;;;9.02;2.88;;;;;;;15.31;82.88;99511.19;338979;28;17655;-64
2023/10/03 00:48:12;;;;;;;7.05;2.75;;;;;;;15.32;82.86;99512.91;339116;28;17874;-65
2023/10/03 00:48:27;;;;;;;8.63;3.25;;;;;;;15.31;82.87;99509.47;334811;28;18081;-65
2023/10/03 00:48:39;;;;;;;9.80;3.47;;;;;;;15.33;82.84;99506.72;337541;28;19003;-64
2023/10/03 00:48:51;;;;;;;7.95;3.28;;;;;;;15.33;82.66;99509.34;339793;28;4662;-64
2023/10/03 00:49:10;;;;;;;6.80;2.95;;;;;;;15.34;82.69;99509.28;340712;28;16398;-64
2023/10/03 00:49:24;;;;;;;8.05;3.03;;;;;;;15.34;82.83;99508.44;340705;28;17824;-65
2023/10/03 00:49:36;;;;;;;7.32;2.92;;;;;;;15.33;82.76;99506.72;337293;28;17981;-65
2023/10/03 00:49:48;;;;;;;7.78;2.80;;;;;;;15.33;83.02;99506.72;338139;28;18098;-64
2023/10/03 00:50:03;;;;;;;9.68;3.22;;;;;;;15.29;83.40;99505.22;341178;28;5506;-65
2023/10/03 00:50:19;;;;;;;9.70;3.33;;;;;;;15.30;83.43;99506.91;338741;28;18085;-66
2023/10/03 00:50:31;;;;;;;7.95;3.20;;;;;;;15.30;83.62;99506.91;337546;28;17064;-65
2023/10/03 00:50:45;;;;;;;8.68;3.15;;;;;;;15.30;83.44;99512.16;338391;28;12131;-65
2023/10/03 00:50:57;;;;;;;9.38;3.38;;;;;;;15.30;83.23;99506.91;341112;28;4540;-64
2023/10/03 00:51:10;;;;;;;8.57;3.45;;;;;;;15.31;82.99;99512.06;338532;28;18314;-64
2023/10/03 00:51:23;;;;;;;8.68;3.20;;;;;;;15.31;83.25;99503.34;341400;28;4700;-64
2023/10/03 00:51:36;;;;;;;8.07;3.05;;;;;;;15.29;83.62;99511.31;337630;28;17967;-65
2023/10/03 00:51:49;;;;;;;6.82;3.38;;;;;;;15.29;83.71;99505.22;340320;28;4664;-65
2023/10/03 00:52:05;;;;;;;6.00;3.25;;;;;;;15.29;83.45;99508.69;337837;28;18237;-64
2023/10/03 00:52:17;;;;;;;5.95;3.17;;;;;;;15.29;83.46;99505.22;333163;28;18563;-65
2023/10/03 00:52:31;;;;;;;7.40;3.08;;;;;;;15.29;83.37;99510.44;341382;28;5352;-64
2023/10/03 00:52:45;;;;;;;8.00;2.95;;;;;;;15.28;83.74;99506.16;339082;28;18781;-64
2023/10/03 00:53:00;;;;;;;8.23;2.95;;;;;;;15.29;84.04;99513.94;335773;28;17764;-65
2023/10/03 00:53:14;;;;;;;9.07;3.08;;;;;;;15.31;83.43;99508.59;339386;28;18156;-64
2023/10/03 00:53:26;;;;;;;7.63;3.15;;;;;;;15.31;83.51;99513.81;337997;28;12972;-64
2023/10/03 00:53:38;;;;;;;7.38;3.22;;;;;;;15.29;83.66;99507.81;335628;28;5608;-64
2023/10/03 00:53:55;;;;;;;7.80;3.65;;;;;;;15.28;83.84;99503.53;338586;28;16683;-65
2023/10/03 00:54:09;;;;;;;8.35;3.60;;;;;;;15.27;83.98;99512.31;338348;28;18183;-65
2023/10/03 00:54:21;;;;;;;7.85;3.30;;;;;;;15.28;83.84;99507.00;336844;28;18053;-64
2023/10/03 00:54:33;;;;;;;7.47;3.20;;;;;;;15.29;83.78;99510.44;339952;28;4585;-64
2023/10/03 00:54:46;;;;;;;6.90;3.22;;;;;;;15.29;83.68;99511.31;336945;28;18003;-64
2023/10/03 00:55:00;;;;;;;6.93;3.50;;;;;;;15.30;83.41;99510.38;339825;28;4840;-65
2023/10/03 00:55:13;;;;;;;6.80;3.40;;;;;;;15.31;83.34;99511.19;332464;28;18241;-65
2023/10/03 00:55:26;;;;;;;7.13;3.50;;;;;;;15.32;83.29;99507.66;339655;28;5822;-66
2023/10/03 00:55:43;;;;;;;7.22;3.70;;;;;;;15.33;83.22;99506.72;337256;28;18139;-65
2023/10/03 00:55:59;;;;;;;8.07;3.70;;;;;;;15.30;83.19;99506.91;337223;28;17017;-65
2023/10/03 00:56:11;;;;;;;8.05;3.42;;;;;;;15.29;83.23;99500.84;336902;28;18555;-65
2023/10/03 00:56:23;;;;;;;7.35;3.42;;;;;;;15.29;83.35;99502.59;341126;28;4617;-64
2023/10/03 00:56:36;;;;;;;7.55;3.42;;;;;;;15.29;83.34;99505.22;340087;28;5161;-65
2023/10/03 00:56:49;;;;;;;6.80;3.28;;;;;;;15.31;83.43;99503.34;337613;28;18030;-65
2023/10/03 00:57:01;;;;;;;6.78;3.17;;;;;;;15.30;83.51;99502.50;338144;28;11877;-65
2023/10/03 00:57:15;;;;;;;6.68;2.95;;;;;;;15.30;83.43;99504.28;341395;28;4617;-65
2023/10/03 00:57:27;;;;;;;7.18;3.00;;;;;;;15.31;83.20;99498.97;338478;28;5185;-64
2023/10/03 00:57:39;;;;;;;7.72;3.20;;;;;;;15.32;83.13;99499.81;340398;28;5542;-65
2023/10/03 00:58:06;;;;;;;8.30;3.35;;;;;;;15.32;83.29;99502.44;339960;28;10886;-65
2023/10/03 00:58:28;;;;;;;8.32;3.42;;;;;;;15.32;83.20;99495.41;337747;28;17523;-66
2023/10/03 00:58:41;;;;;;;8.15;3.72;;;;;;;15.34;83.09;99497.97;337497;28;17625;-64
2023/10/03 00:58:53;;;;;;;8.43;3.72;;;;;;;15.32;83.20;99499.81;337861;28;18090;-65
2023/10/03 00:59:08;;;;;;;10.20;3.65;;;;;;;15.33;83.46;99501.50;340524;28;6348;-65
2023/10/03 00:59:20;;;;;;;9.32;3.50;;;;;;;15.30;83.31;99504.28;338496;28;18085;-64
2023/10/03 00:59:33;;;;;;;8.07;3.50;;;;;;;15.30;83.32;99501.69;334200;28;16959;-65
2023/10/03 00:59:45;;;;;;;7.03;3.20;;;;;;;15.27;83.65;99497.47;341699;28;4753;-66
2023/10/03 00:59:58;;;;;;;7.07;3.08;;;;;;;15.26;83.66;99495.75;338574;28;18403;-65
2023/10/03 01:00:16;;;;;;;7.18;3.17;;;;;;;15.27;83.37;99497.47;340765;28;4501;-65
2023/10/03 01:00:28;;;;;;;8.02;3.60;;;;;;;15.27;83.46;99499.22;337807;28;18016;-64
2023/10/03 01:00:49;;;;;;;8.27;3.67;;;;;;;15.26;83.43;99497.53;341228;28;4641;-65
2023/10/03 01:01:03;;;;;;;8.32;3.10;;;;;;;15.28;83.17;99499.13;338168;28;16668;-64
2023/10/03 01:01:15;;;;;;;7.93;3.00;;;;;;;15.29;83.33;99502.59;338992;28;14622;-64
2023/10/03 01:01:33;;;;;;;7.95;3.10;;;;;;;15.28;83.37;99504.38;340615;28;5277;-65
2023/10/03 01:01:46;;;;;;;7.97;3.45;;;;;;;15.30;83.01;99501.69;334177;28;17780;-65
2023/10/03 01:02:05;;;;;;;7.88;3.53;;;;;;;15.31;82.89;99503.34;338246;28;18866;-66
2023/10/03 01:02:21;;;;;;;10.50;3.30;;;;;;;15.29;83.17;99500.84;340921;28;17867;-65
2023/10/03 01:02:33;;;;;;;10.05;3.33;;;;;;;15.29;82.77;99499.97;337001;28;17392;-64
2023/10/03 01:02:50;;;;;;;8.02;3.72;;;;;;;15.29;82.60;99499.97;337712;28;18001;-65
2023/10/03 01:03:02;;;;;;;7.68;3.92;;;;;;;15.26;83.03;99497.53;337941;28;17881;-65
2023/10/03 01:03:38;;;;;;;6.13;3.17;;;;;;;15.27;82.83;99499.22;338521;28;18185;-65
2023/10/03 01:03:51;;;;;;;8.77;3.45;;;;;;;15.27;82.85;99496.59;338443;28;17547;-65
2023/10/03 01:04:05;;;;;;;9.25;3.35;;;;;;;15.26;82.86;99495.75;341101;28;4653;-66
2023/10/03 01:04:19;;;;;;;9.77;3.40;;;;;;;15.28;82.92;99495.69;334070;28;17942;-65
2023/10/03 01:04:34;;;;;;;8.15;3.17;;;;;;;15.27;83.13;99496.59;338749;28;17959;-65
2023/10/03 01:04:46;;;;;;;7.38;3.03;;;;;;;15.28;83.21;99493.06;337941;28;17677;-65
2023/10/03 01:05:02;;;;;;;6.82;3.05;;;;;;;15.26;83.33;99497.53;338868;28;7232;-65